Time;durP1;ratioP1;P1;durP2;ratioP2;P2;SDS_P1;SDS_P2;PMS_P1;PMS_P2;Temp;Humidity;BMP_temperature;BMP_pressure;BME280_temperature;BME280_humidity;BME280_pressure;Samples;Min_cycle;Max_cycle;Signal;HPM_P1;HPM_P2
2022/03/03 00:00:13;;;;;;;69.40;36.28;;;1.30;99.90;;;;;;5022621;28;20143;-93
2022/03/03 00:02:40;;;;;;;68.45;37.40;;;1.20;99.90;;;;;;5039131;28;20080;-93
2022/03/03 00:05:07;;;;;;;64.68;37.08;;;1.20;99.90;;;;;;5039386;28;20053;-93
2022/03/03 00:07:33;;;;;;;68.63;37.88;;;1.20;99.90;;;;;;5039266;28;20135;-93
2022/03/03 00:10:00;;;;;;;65.32;38.33;;;2.00;99.90;;;;;;5039131;28;20057;-93
2022/03/03 00:12:25;;;;;;;65.00;36.40;;;3.70;99.90;;;;;;5039175;28;20048;-93
2022/03/03 00:14:51;;;;;;;69.43;36.58;;;2.70;99.90;;;;;;5039110;28;20052;-91
2022/03/03 00:17:17;;;;;;;70.95;37.25;;;4.00;99.90;;;;;;5022795;28;20127;-93
2022/03/03 00:19:43;;;;;;;66.03;36.50;;;3.30;99.90;;;;;;5054631;28;20063;-93
2022/03/03 00:22:09;;;;;;;67.97;37.22;;;4.70;99.90;;;;;;5028804;28;20048;-94
2022/03/03 00:24:35;;;;;;;67.35;36.88;;;2.70;99.90;;;;;;5040647;28;20041;-92
2022/03/03 00:27:01;;;;;;;72.15;38.10;;;4.40;99.90;;;;;;5043016;28;20059;-92
2022/03/03 00:29:27;;;;;;;69.47;39.03;;;2.70;99.90;;;;;;5045631;28;20040;-93
2022/03/03 00:31:52;;;;;;;73.72;38.78;;;3.20;99.90;;;;;;5058206;28;20065;-93
2022/03/03 00:34:19;;;;;;;66.60;40.28;;;1.20;99.90;;;;;;5022677;28;20056;-92
2022/03/03 00:36:45;;;;;;;66.25;38.95;;;3.20;99.90;;;;;;5022303;28;20052;-92
2022/03/03 00:39:11;;;;;;;71.85;39.72;;;4.10;99.90;;;;;;5038484;28;21113;-93
2022/03/03 00:41:37;;;;;;;71.95;37.88;;;1.60;99.90;;;;;;5038356;28;20088;-93
2022/03/03 00:44:05;;;;;;;71.07;38.33;;;4.20;99.90;;;;;;5040714;28;20510;-92
2022/03/03 00:46:33;;;;;;;68.45;38.00;;;1.10;99.90;;;;;;5041891;28;20080;-92
2022/03/03 00:48:59;;;;;;;68.07;38.45;;;4.90;99.90;;;;;;5041668;28;20021;-92
2022/03/03 00:51:25;;;;;;;69.63;38.80;;;3.70;99.90;;;;;;5042149;28;20122;-93
2022/03/03 00:53:51;;;;;;;71.00;38.70;;;4.00;99.90;;;;;;5057469;28;20063;-92
2022/03/03 00:56:17;;;;;;;68.50;38.50;;;3.30;99.90;;;;;;5041977;28;20064;-92
2022/03/03 00:58:44;;;;;;;76.03;42.10;;;4.20;99.90;;;;;;5025596;28;20067;-92
2022/03/03 01:01:11;;;;;;;68.05;37.85;;;3.80;99.90;;;;;;5024661;28;20041;-91
2022/03/03 01:03:37;;;;;;;65.40;36.28;;;0.80;99.90;;;;;;5040618;28;20126;-92
2022/03/03 01:06:03;;;;;;;62.75;35.50;;;2.30;99.90;;;;;;5025139;28;20048;-92
2022/03/03 01:08:31;;;;;;;73.63;38.33;;;2.70;99.90;;;;;;5025027;28;20110;-94
2022/03/03 01:10:57;;;;;;;70.18;40.55;;;3.40;99.90;;;;;;5042012;28;20122;-93
2022/03/03 01:13:23;;;;;;;67.18;35.65;;;0.90;99.90;;;;;;5042039;28;20473;-94
2022/03/03 01:15:53;;;;;;;73.85;40.05;;;3.50;99.90;;;;;;5041848;28;20400;-94
2022/03/03 01:18:20;;;;;;;67.90;36.83;;;0.70;99.90;;;;;;5058361;28;20485;-94
2022/03/03 01:20:46;;;;;;;64.07;36.42;;;4.30;99.90;;;;;;5041851;28;20139;-92
2022/03/03 01:23:12;;;;;;;70.63;37.40;;;3.30;99.90;;;;;;5041899;28;20102;-93
2022/03/03 01:25:38;;;;;;;73.32;39.45;;;3.60;99.90;;;;;;5041725;28;20045;-93
2022/03/03 01:28:04;;;;;;;64.82;36.28;;;2.40;99.90;;;;;;5041276;28;20059;-93
2022/03/03 01:30:30;;;;;;;68.68;36.65;;;1.10;99.90;;;;;;5040695;28;20052;-93
2022/03/03 01:32:56;;;;;;;69.07;37.00;;;1.00;99.90;;;;;;5024887;28;20087;-94
2022/03/03 01:35:22;;;;;;;66.90;34.67;;;2.10;99.90;;;;;;5025050;28;20277;-90
2022/03/03 01:37:50;;;;;;;68.43;37.15;;;1.50;99.90;;;;;;5023112;28;20520;-93
2022/03/03 01:40:16;;;;;;;71.50;37.58;;;4.10;99.90;;;;;;5040611;28;20084;-93
2022/03/03 01:42:42;;;;;;;69.22;36.60;;;1.90;99.90;;;;;;5024478;28;20507;-92
2022/03/03 01:45:09;;;;;;;70.00;38.05;;;3.70;99.90;;;;;;5041165;28;20049;-91
2022/03/03 01:47:35;;;;;;;72.20;38.67;;;0.40;99.90;;;;;;5024817;28;20049;-92
2022/03/03 01:50:01;;;;;;;67.82;35.33;;;0.40;99.90;;;;;;5040802;28;20064;-92
2022/03/03 01:52:30;;;;;;;68.68;37.08;;;3.40;99.90;;;;;;5040725;28;20044;-92
2022/03/03 01:54:56;;;;;;;64.90;36.17;;;0.60;99.90;;;;;;5023824;28;20110;-93
2022/03/03 01:57:22;;;;;;;68.00;36.00;;;4.30;99.90;;;;;;5040932;28;20080;-93
2022/03/03 01:59:49;;;;;;;72.53;37.65;;;1.00;99.90;;;;;;5041049;28;20160;-93
2022/03/03 02:02:15;;;;;;;65.60;36.88;;;0.40;99.90;;;;;;5040874;28;20064;-94
2022/03/03 02:04:41;;;;;;;70.43;36.47;;;3.50;99.90;;;;;;5039548;28;20057;-94
2022/03/03 02:07:10;;;;;;;67.03;36.65;;;2.10;99.90;;;;;;5040969;28;20045;-92
2022/03/03 02:09:36;;;;;;;64.13;35.22;;;0.70;99.90;;;;;;5040596;28;20041;-92
2022/03/03 02:12:03;;;;;;;65.97;36.13;;;2.70;99.90;;;;;;5041503;28;20139;-91
2022/03/03 02:14:29;;;;;;;68.15;35.55;;;0.90;99.90;;;;;;5041117;28;20088;-93
2022/03/03 02:16:55;;;;;;;68.05;36.40;;;2.90;99.90;;;;;;5041272;28;20067;-93
2022/03/03 02:19:21;;;;;;;68.10;37.08;;;3.60;99.90;;;;;;5025149;28;20041;-93
2022/03/03 02:21:53;;;;;;;71.03;38.17;;;3.10;99.90;;;;;;5044489;28;20049;-93
2022/03/03 02:24:20;;;;;;;63.45;35.15;;;2.80;99.90;;;;;;5062652;28;20132;-93
2022/03/03 02:26:47;;;;;;;67.05;36.55;;;2.70;99.90;;;;;;5027331;28;20041;-93
2022/03/03 02:29:13;;;;;;;64.68;35.55;;;3.90;99.90;;;;;;5047099;28;20044;-93
2022/03/03 02:31:40;;;;;;;61.30;34.63;;;3.30;99.90;;;;;;5023296;28;20052;-93
2022/03/03 02:34:06;;;;;;;65.80;36.35;;;2.60;99.90;;;;;;5040093;28;20049;-93
2022/03/03 02:36:33;;;;;;;67.55;36.10;;;2.90;99.90;;;;;;5023633;28;20053;-92
2022/03/03 02:39:01;;;;;;;62.83;33.70;;;0.10;99.90;;;;;;5039173;28;20136;-93
2022/03/03 02:41:28;;;;;;;66.45;34.72;;;1.10;99.90;;;;;;5055470;28;20045;-93
2022/03/03 02:43:54;;;;;;;59.50;34.40;;;0.10;99.90;;;;;;5039482;28;20075;-93
2022/03/03 02:46:20;;;;;;;62.55;36.60;;;-0.10;99.90;;;;;;5039762;28;20734;-94
2022/03/03 02:48:46;;;;;;;68.32;35.72;;;0.10;99.90;;;;;;5039239;28;20198;-92
2022/03/03 02:51:12;;;;;;;65.60;34.97;;;0.30;99.90;;;;;;5022219;28;20044;-93
2022/03/03 02:53:38;;;;;;;67.35;35.78;;;2.90;99.90;;;;;;5040163;28;20477;-94
2022/03/03 02:56:05;;;;;;;63.35;34.58;;;0.30;99.90;;;;;;5039922;28;20048;-92
2022/03/03 02:58:31;;;;;;;68.53;36.95;;;1.90;99.90;;;;;;5056316;28;20063;-93
2022/03/03 03:00:57;;;;;;;63.85;34.35;;;1.30;99.90;;;;;;5056414;28;20044;-93
2022/03/03 03:03:26;;;;;;;71.32;36.08;;;2.50;99.90;;;;;;5039768;28;20091;-92
2022/03/03 03:05:51;;;;;;;60.20;33.67;;;1.80;99.90;;;;;;5039212;28;20053;-93
2022/03/03 03:08:17;;;;;;;64.65;36.45;;;3.20;99.90;;;;;;5022847;28;20052;-94
2022/03/03 03:10:43;;;;;;;63.15;35.25;;;3.00;99.90;;;;;;5056578;28;20049;-93
2022/03/03 03:13:14;;;;;;;63.20;34.97;;;1.10;99.90;;;;;;5039842;28;20044;-93
2022/03/03 03:15:43;;;;;;;64.78;35.85;;;1.90;99.90;;;;;;5038906;28;20055;-93
2022/03/03 03:18:17;;;;;;;62.75;34.25;;;1.00;99.90;;;;;;5021813;28;20041;-92
2022/03/03 03:20:45;;;;;;;67.28;36.78;;;0.20;99.90;;;;;;5054906;28;20049;-93
2022/03/03 03:23:13;;;;;;;65.10;36.63;;;3.20;99.90;;;;;;5023092;28;20049;-91
2022/03/03 03:25:44;;;;;;;62.83;32.30;;;3.00;99.90;;;;;;5039718;28;20159;-92
2022/03/03 03:28:11;;;;;;;;;;;-0.10;99.90;;;;;;5039399;28;20059;-92
2022/03/03 03:30:37;;;;;;;61.10;34.10;;;0.20;99.90;;;;;;5037908;28;19920;-91
2022/03/03 03:33:03;;;;;;;62.60;35.47;;;-0.10;99.90;;;;;;5037848;28;20451;-93
2022/03/03 03:35:29;;;;;;;64.15;35.50;;;0.30;99.90;;;;;;5023040;28;20041;-94
2022/03/03 03:37:55;;;;;;;60.08;33.88;;;0.90;99.90;;;;;;5006247;28;20049;-93
2022/03/03 03:40:21;;;;;;;66.13;36.60;;;-0.20;99.90;;;;;;5022579;28;20170;-92
2022/03/03 03:42:46;;;;;;;61.10;33.45;;;2.00;99.90;;;;;;5055980;28;20485;-93
2022/03/03 03:45:13;;;;;;;61.35;34.15;;;0.10;99.90;;;;;;5022441;28;20481;-92
2022/03/03 03:47:39;;;;;;;61.95;34.70;;;-0.30;99.90;;;;;;5038624;28;20546;-92
2022/03/03 03:50:10;;;;;;;66.25;35.90;;;-0.20;99.90;;;;;;5038958;28;20116;-93
2022/03/03 03:52:37;;;;;;;61.50;35.42;;;;;;;;;;5039030;28;20053;-93
2022/03/03 03:55:04;;;;;;;71.25;36.75;;;;;;;;;;5039026;28;20135;-93
2022/03/03 03:57:29;;;;;;;56.00;32.92;;;-0.30;99.90;;;;;;5037851;28;20049;-93
2022/03/03 03:59:55;;;;;;;66.45;35.90;;;-0.40;99.90;;;;;;5038978;28;20051;-93
2022/03/03 04:02:21;;;;;;;60.67;34.72;;;-0.10;99.90;;;;;;5038977;28;20131;-92
2022/03/03 04:04:47;;;;;;;58.17;34.22;;;-0.40;99.90;;;;;;5037643;28;20049;-90
2022/03/03 04:07:12;;;;;;;60.38;33.50;;;-0.30;99.90;;;;;;5038061;28;20089;-93
2022/03/03 04:09:38;;;;;;;62.95;34.55;;;-0.30;99.90;;;;;;5022489;28;20040;-94
2022/03/03 04:12:04;;;;;;;56.70;32.88;;;-0.30;99.90;;;;;;5038824;28;20049;-94
2022/03/03 04:14:30;;;;;;;57.08;32.40;;;-0.40;99.90;;;;;;5039045;28;20060;-94
2022/03/03 04:16:56;;;;;;;60.72;34.47;;;-0.20;99.90;;;;;;5022595;28;20396;-94
2022/03/03 04:19:22;;;;;;;56.35;32.78;;;-0.20;99.90;;;;;;5039182;28;20049;-95
2022/03/03 04:21:48;;;;;;;59.58;34.58;;;-0.20;99.90;;;;;;5025428;28;20110;-93
2022/03/03 04:24:15;;;;;;;55.13;32.05;;;-0.50;99.90;;;;;;5052591;28;20080;-94
2022/03/03 04:26:41;;;;;;;59.25;32.78;;;-0.10;99.90;;;;;;5025477;28;20071;-93
2022/03/03 04:29:07;;;;;;;56.05;33.38;;;-0.40;99.90;;;;;;5053692;28;20084;-93
2022/03/03 04:31:33;;;;;;;58.95;33.90;;;-0.30;99.90;;;;;;5021528;28;20080;-94
2022/03/03 04:33:59;;;;;;;53.83;30.33;;;-0.20;99.90;;;;;;5039694;28;20041;-93
2022/03/03 04:36:24;;;;;;;58.50;33.40;;;-0.40;99.90;;;;;;5039432;28;20055;-94
2022/03/03 04:38:51;;;;;;;58.47;31.60;;;-0.30;99.90;;;;;;5020682;28;20126;-93
2022/03/03 04:41:20;;;;;;;57.38;32.10;;;-0.40;99.90;;;;;;5037991;28;20063;-95
2022/03/03 04:43:46;;;;;;;58.67;33.33;;;-0.40;99.90;;;;;;5038893;28;20052;-95
2022/03/03 04:46:12;;;;;;;56.53;31.88;;;-0.40;99.90;;;;;;5038781;28;20044;-94
2022/03/03 04:48:38;;;;;;;61.00;33.35;;;-0.30;99.90;;;;;;5038857;28;20071;-94
2022/03/03 04:51:04;;;;;;;59.55;33.30;;;-0.40;99.90;;;;;;5038891;28;20076;-95
2022/03/03 04:53:30;;;;;;;58.70;33.13;;;-0.70;99.90;;;;;;5022817;28;20056;-95
2022/03/03 04:55:57;;;;;;;52.42;30.83;;;-0.40;99.90;;;;;;5023213;28;20053;-93
2022/03/03 04:58:24;;;;;;;58.25;33.85;;;-0.20;99.90;;;;;;5055772;28;20051;-93
2022/03/03 05:00:50;;;;;;;57.45;32.55;;;-0.30;99.90;;;;;;5038683;28;20057;-93
2022/03/03 05:03:16;;;;;;;56.13;33.15;;;-0.40;99.90;;;;;;5038042;28;20147;-93
2022/03/03 05:05:42;;;;;;;55.60;30.95;;;-0.50;99.90;;;;;;5037239;28;20140;-94
2022/03/03 05:08:08;;;;;;;59.20;34.38;;;-0.40;99.90;;;;;;5021831;28;20044;-94
2022/03/03 05:10:34;;;;;;;55.88;32.00;;;-0.60;99.90;;;;;;5038862;28;20051;-94
2022/03/03 05:13:01;;;;;;;55.60;30.98;;;-0.70;99.90;;;;;;5054187;28;20559;-90
2022/03/03 05:15:27;;;;;;;57.22;33.22;;;-0.30;99.90;;;;;;5020585;28;20135;-93
2022/03/03 05:17:53;;;;;;;54.85;32.42;;;-0.70;99.90;;;;;;5038033;28;20135;-92
2022/03/03 05:20:19;;;;;;;53.90;30.98;;;-0.40;99.90;;;;;;5037307;28;20049;-94
2022/03/03 05:22:44;;;;;;;55.97;32.13;;;-0.40;99.90;;;;;;5038264;28;20178;-94
2022/03/03 05:25:10;;;;;;;55.63;31.88;;;-0.50;99.90;;;;;;5038277;28;20492;-93
2022/03/03 05:27:42;;;;;;;55.42;33.20;;;-0.70;99.90;;;;;;5038505;28;20045;-94
2022/03/03 05:30:09;;;;;;;58.53;31.80;;;-0.40;99.90;;;;;;5039538;28;20048;-94
2022/03/03 05:32:38;;;;;;;56.85;30.83;;;-0.50;99.90;;;;;;5041923;28;20057;-94
2022/03/03 05:35:05;;;;;;;59.83;31.65;;;-0.40;99.90;;;;;;5042746;28;20053;-95
2022/03/03 05:37:32;;;;;;;54.72;31.30;;;-0.60;99.90;;;;;;5042825;28;20099;-93
2022/03/03 05:39:58;;;;;;;54.10;31.42;;;-0.50;99.90;;;;;;5041642;28;20077;-95
2022/03/03 05:42:24;;;;;;;53.65;31.40;;;-0.60;99.90;;;;;;5042037;28;20057;-95
2022/03/03 05:44:51;;;;;;;53.28;31.25;;;-0.60;99.90;;;;;;5025769;28;20055;-94
2022/03/03 05:47:18;;;;;;;54.40;31.25;;;-0.60;99.90;;;;;;5042651;28;20052;-94
2022/03/03 05:49:44;;;;;;;55.83;32.80;;;;;;;;;;5040561;28;20400;-91
2022/03/03 05:52:12;;;;;;;51.10;31.48;;;-0.80;99.90;;;;;;5040055;28;20049;-93
2022/03/03 05:54:38;;;;;;;49.40;29.70;;;-0.90;99.90;;;;;;5041970;28;20059;-93
2022/03/03 05:57:10;;;;;;;54.95;31.08;;;-0.80;99.90;;;;;;5041944;28;20057;-95
2022/03/03 05:59:39;;;;;;;50.17;29.90;;;-0.70;99.90;;;;;;5042237;28;20059;-94
2022/03/03 06:02:05;;;;;;;55.22;31.15;;;-0.70;99.90;;;;;;5042132;28;20127;-95
2022/03/03 06:04:35;;;;;;;49.20;29.73;;;-0.80;99.90;;;;;;5041392;28;20471;-94
2022/03/03 06:07:07;;;;;;;48.80;28.77;;;-0.60;99.90;;;;;;5058507;28;20056;-94
2022/03/03 06:09:35;;;;;;;53.72;30.30;;;-1.00;99.90;;;;;;5041526;28;20041;-94
2022/03/03 06:12:13;;;;;;;54.45;31.85;;;-0.80;99.90;;;;;;5058052;28;20071;-94
2022/03/03 06:14:45;;;;;;;55.72;33.60;;;-0.60;99.90;;;;;;5041088;28;20045;-94
2022/03/03 06:17:11;;;;;;;55.25;30.95;;;-0.80;99.90;;;;;;5042179;28;20048;-94
2022/03/03 06:19:42;;;;;;;53.50;30.50;;;-0.90;99.90;;;;;;5026205;28;20057;-92
2022/03/03 06:22:11;;;;;;;46.78;29.65;;;-0.80;99.90;;;;;;5052198;28;20465;-93
2022/03/03 06:24:38;;;;;;;53.08;29.65;;;-0.80;99.90;;;;;;5030660;28;20166;-94
2022/03/03 06:27:07;;;;;;;50.28;30.30;;;-0.90;99.90;;;;;;5053944;28;20055;-94
2022/03/03 06:29:33;;;;;;;49.30;29.85;;;-0.30;99.90;;;;;;5045670;28;20051;-92
2022/03/03 06:31:59;;;;;;;54.05;30.27;;;-1.10;99.90;;;;;;5040575;28;20045;-93
2022/03/03 06:34:25;;;;;;;51.45;30.95;;;-0.80;99.90;;;;;;5041134;28;20049;-93
2022/03/03 06:36:51;;;;;;;51.65;32.58;;;-0.80;99.90;;;;;;5055889;28;20041;-93
2022/03/03 06:39:17;;;;;;;57.47;31.92;;;-0.90;99.90;;;;;;5024102;28;20052;-94
2022/03/03 06:41:51;;;;;;;52.03;30.08;;;-0.70;99.90;;;;;;5040786;28;20130;-95
2022/03/03 06:44:22;;;;;;;50.47;30.90;;;-0.90;99.90;;;;;;5041484;28;20396;-94
2022/03/03 06:46:48;;;;;;;55.50;32.58;;;-0.80;99.90;;;;;;5025384;28;20382;-94
2022/03/03 06:49:14;;;;;;;48.30;30.20;;;-0.80;99.90;;;;;;5042137;28;20139;-92
2022/03/03 06:51:49;;;;;;;55.05;31.67;;;-0.70;99.90;;;;;;5040497;28;20385;-94
2022/03/03 06:54:18;;;;;;;56.75;34.13;;;-0.60;99.90;;;;;;5041435;28;20059;-94
2022/03/03 06:56:49;;;;;;;60.40;31.73;;;-0.80;99.90;;;;;;5041641;28;20464;-93
2022/03/03 06:59:18;;;;;;;50.90;31.73;;;-0.70;99.90;;;;;;5040371;28;20056;-94
2022/03/03 07:01:46;;;;;;;53.85;32.63;;;-0.50;99.90;;;;;;5041907;28;20045;-93
2022/03/03 07:04:13;;;;;;;51.45;31.10;;;-0.40;99.90;;;;;;5023739;28;20033;-93
2022/03/03 07:06:39;;;;;;;52.15;31.27;;;-0.30;99.90;;;;;;5025474;28;20622;-93
2022/03/03 07:09:06;;;;;;;57.33;31.25;;;-0.20;99.90;;;;;;5039834;28;20044;-93
2022/03/03 07:11:32;;;;;;;51.22;30.73;;;-0.30;99.90;;;;;;5024852;28;20044;-94
2022/03/03 07:13:59;;;;;;;54.22;32.08;;;-0.40;99.90;;;;;;5040763;28;20072;-94
2022/03/03 07:16:45;;;;;;;54.30;31.70;;;-0.70;99.90;;;;;;5025304;28;20515;-95
2022/03/03 07:19:34;;;;;;;50.22;30.35;;;-0.40;99.90;;;;;;5024037;28;20059;-94
2022/03/03 07:22:07;;;;;;;54.90;31.67;;;0.60;99.90;;;;;;5040281;28;20049;-94
2022/03/03 07:24:44;;;;;;;52.65;29.92;;;0.00;99.90;;;;;;5040338;28;20037;-94
2022/03/03 07:27:21;;;;;;;48.28;30.42;;;0.10;99.90;;;;;;5041067;28;20059;-93
2022/03/03 07:29:54;;;;;;;54.55;30.10;;;0.40;99.90;;;;;;5040927;28;20102;-94
2022/03/03 07:32:26;;;;;;;51.85;30.85;;;0.20;99.90;;;;;;5040858;28;20053;-94
2022/03/03 07:34:57;;;;;;;49.20;30.50;;;0.20;99.90;;;;;;5042658;28;20048;-94
2022/03/03 07:37:34;;;;;;;53.38;32.28;;;0.40;99.90;;;;;;5041363;28;20081;-93
2022/03/03 07:40:08;;;;;;;57.38;32.90;;;0.60;99.90;;;;;;5041604;28;20068;-93
2022/03/03 07:42:35;;;;;;;53.47;32.00;;;0.80;99.90;;;;;;5040249;28;20499;-89
2022/03/03 07:45:05;;;;;;;53.13;32.85;;;0.70;99.90;;;;;;5038079;28;20122;-90
2022/03/03 07:47:31;;;;;;;48.83;30.73;;;1.80;99.90;;;;;;5055436;28;20546;-94
2022/03/03 07:49:57;;;;;;;50.85;30.40;;;1.40;99.90;;;;;;5021725;28;20079;-94
2022/03/03 07:52:28;;;;;;;49.85;30.50;;;;;;;;;;5038525;28;20476;-92
2022/03/03 07:54:54;;;;;;;51.28;31.25;;;;;;;;;;5055979;28;20040;-93
2022/03/03 07:57:22;;;;;;;50.78;30.88;;;;;;;;;;5055685;28;20045;-94
2022/03/03 07:59:49;;;;;;;54.85;30.83;;;;;;;;;;5056159;28;20082;-92
2022/03/03 08:02:24;;;;;;;44.70;29.42;;;;;;;;;;5039623;28;20098;-93
2022/03/03 08:04:51;;;;;;;50.03;30.52;;;;;;;;;;5022641;28;20049;-92
2022/03/03 08:07:17;;;;;;;52.20;31.65;;;;;;;;;;5039141;28;20052;-93
2022/03/03 08:09:47;;;;;;;51.92;32.15;;;1.80;99.90;;;;;;5039059;28;20076;-93
2022/03/03 08:12:15;;;;;;;52.15;31.95;;;2.00;99.90;;;;;;5038116;28;20048;-93
2022/03/03 08:14:41;;;;;;;48.92;30.98;;;3.60;99.90;;;;;;5037231;28;20052;-94
2022/03/03 08:17:08;;;;;;;52.58;32.00;;;2.20;99.90;;;;;;5053930;28;20055;-92
2022/03/03 08:19:34;;;;;;;52.15;32.95;;;2.20;99.90;;;;;;5043884;28;20060;-92
2022/03/03 08:22:00;;;;;;;49.60;29.80;;;3.20;99.90;;;;;;5043266;28;20468;-90
2022/03/03 08:24:27;;;;;;;48.20;30.67;;;4.80;99.90;;;;;;5042960;28;20044;-90
2022/03/03 08:26:55;;;;;;;49.70;30.85;;;3.80;99.90;;;;;;5045052;28;20057;-92
2022/03/03 08:29:22;;;;;;;49.28;30.75;;;3.30;99.90;;;;;;5022002;28;20136;-93
2022/03/03 08:31:57;;;;;;;47.60;29.60;;;4.80;99.90;;;;;;5038324;28;20087;-94
2022/03/03 08:34:34;;;;;;;45.85;28.63;;;3.90;99.90;;;;;;5023061;28;20053;-91
2022/03/03 08:37:03;;;;;;;49.85;30.52;;;2.80;99.90;;;;;;5037806;28;20045;-92
2022/03/03 08:39:35;;;;;;;51.70;31.38;;;3.10;99.90;;;;;;5054496;28;20048;-92
2022/03/03 08:42:01;;;;;;;45.58;28.75;;;5.70;99.90;;;;;;5037447;28;20419;-93
2022/03/03 08:44:33;;;;;;;48.28;29.23;;;3.20;99.90;;;;;;5037379;28;20049;-91
2022/03/03 08:47:01;;;;;;;45.15;28.17;;;2.70;99.90;;;;;;5038691;28;20090;-94
2022/03/03 08:49:34;;;;;;;47.25;30.35;;;3.40;99.90;;;;;;5037416;28;20041;-93
2022/03/03 08:52:03;;;;;;;49.20;29.73;;;3.60;99.90;;;;;;5037684;28;20057;-93
2022/03/03 08:54:29;;;;;;;46.75;30.27;;;;;;;;;;5038693;28;20057;-92
2022/03/03 08:56:55;;;;;;;45.47;26.58;;;;;;;;;;5038014;28;20048;-93
2022/03/03 08:59:29;;;;;;;42.65;27.30;;;4.00;99.90;;;;;;5021686;28;20049;-93
2022/03/03 09:01:56;;;;;;;42.75;26.00;;;3.10;99.90;;;;;;5037976;28;20392;-93
2022/03/03 09:04:25;;;;;;;41.05;27.73;;;4.10;99.90;;;;;;5038257;28;20045;-92
2022/03/03 09:06:51;;;;;;;41.13;26.65;;;6.30;99.90;;;;;;5027213;28;20061;-93
2022/03/03 09:09:16;;;;;;;43.60;26.92;;;6.40;99.90;;;;;;5042680;28;20138;-92
2022/03/03 09:11:42;;;;;;;43.10;27.50;;;6.60;99.90;;;;;;5025085;28;20065;-90
2022/03/03 09:17:49;;;;;;;38.10;25.27;;;4.40;99.90;;;;;;5059319;28;20066;-93
2022/03/03 09:20:15;;;;;;;38.65;23.85;;;6.90;99.90;;;;;;5041097;28;20131;-93
2022/03/03 09:22:44;;;;;;;33.58;23.95;;;4.50;99.90;;;;;;5041082;28;20111;-93
2022/03/03 09:25:10;;;;;;;37.53;23.70;;;4.80;99.90;;;;;;5042707;28;20067;-92
2022/03/03 09:27:36;;;;;;;32.25;21.88;;;4.80;99.90;;;;;;5025798;28;20400;-93
2022/03/03 09:30:05;;;;;;;34.78;23.08;;;5.20;99.90;;;;;;5023697;28;20443;-88
2022/03/03 09:32:31;;;;;;;37.33;21.88;;;4.90;99.90;;;;;;5057305;28;20061;-92
2022/03/03 09:34:56;;;;;;;32.17;21.85;;;6.00;99.90;;;;;;5024620;28;20052;-91
2022/03/03 09:37:25;;;;;;;30.52;20.98;;;7.30;99.90;;;;;;5041466;28;20044;-91
2022/03/03 09:39:51;;;;;;;30.55;21.35;;;4.50;99.90;;;;;;5056938;28;20044;-92
2022/03/03 09:42:18;;;;;;;31.25;21.27;;;5.20;99.90;;;;;;5041738;28;20159;-91
2022/03/03 09:44:44;;;;;;;31.05;20.23;;;6.10;99.90;;;;;;5056688;28;20057;-91
2022/03/03 09:47:14;;;;;;;29.50;20.67;;;5.40;99.90;;;;;;5040659;28;20128;-93
2022/03/03 09:49:40;;;;;;;28.55;20.10;;;5.70;99.90;;;;;;5040634;28;20043;-92
2022/03/03 09:52:17;;;;;;;29.20;20.90;;;5.80;99.90;;;;;;5024044;28;20117;-92
2022/03/03 09:54:46;;;;;;;27.15;19.02;;;5.70;99.90;;;;;;5041175;28;20037;-94
2022/03/03 09:57:14;;;;;;;28.27;18.65;;;7.80;99.90;;;;;;5041140;28;20049;-92
2022/03/03 09:59:40;;;;;;;30.80;18.75;;;6.80;99.90;;;;;;5040043;28;20055;-92
2022/03/03 10:02:07;;;;;;;30.23;19.42;;;5.90;99.90;;;;;;5023623;28;20045;-92
2022/03/03 10:04:34;;;;;;;28.05;18.13;;;7.70;99.90;;;;;;5042560;28;20186;-93
2022/03/03 10:07:04;;;;;;;26.77;18.13;;;4.70;99.90;;;;;;5024587;28;20053;-93
2022/03/03 10:09:31;;;;;;;27.63;18.00;;;6.50;99.90;;;;;;5024483;28;20045;-89
2022/03/03 10:12:03;;;;;;;28.58;17.85;;;6.60;99.90;;;;;;5042237;28;20072;-88
2022/03/03 10:14:35;;;;;;;28.60;18.42;;;6.30;99.90;;;;;;5025858;28;20103;-91
2022/03/03 10:17:05;;;;;;;26.13;18.23;;;7.10;99.90;;;;;;5041395;28;20059;-91
2022/03/03 10:19:34;;;;;;;27.27;18.75;;;6.50;99.90;;;;;;5043696;28;20091;-91
2022/03/03 10:21:59;;;;;;;26.77;19.05;;;6.60;99.90;;;;;;5050371;28;20059;-91
2022/03/03 10:24:28;;;;;;;23.27;16.92;;;7.10;99.90;;;;;;5030005;28;20048;-93
2022/03/03 10:27:18;;;;;;;25.55;18.00;;;6.90;99.90;;;;;;5040986;28;20110;-93
2022/03/03 10:29:48;;;;;;;27.73;18.27;;;7.70;99.90;;;;;;5041033;28;20131;-94
2022/03/03 10:32:24;;;;;;;24.60;17.95;;;8.20;99.90;;;;;;5040594;28;20053;-93
2022/03/03 10:34:53;;;;;;;25.17;17.48;;;7.20;99.90;;;;;;5041441;28;20063;-92
2022/03/03 10:37:23;;;;;;;24.77;17.60;;;7.40;99.90;;;;;;5040872;28;20083;-92
2022/03/03 10:39:59;;;;;;;27.25;17.55;;;7.40;99.90;;;;;;5040890;28;20060;-92
2022/03/03 10:42:26;;;;;;;24.48;17.52;;;7.70;99.90;;;;;;5024507;28;20443;-93
2022/03/03 10:45:26;;;;;;;25.42;16.17;;;8.60;99.90;;;;;;5040969;28;20114;-92
2022/03/03 10:48:03;;;;;;;26.17;17.02;;;7.90;99.90;;;;;;4998458;28;20060;-91
2022/03/03 10:50:46;;;;;;;23.00;17.20;;;7.90;99.90;;;;;;5024167;28;20138;-92
2022/03/03 10:53:15;;;;;;;23.95;16.83;;;7.60;99.90;;;;;;5040748;28;20045;-90
2022/03/03 10:56:05;;;;;;;21.58;15.88;;;8.30;99.90;;;;;;5024498;28;20049;-91
2022/03/03 10:58:50;;;;;;;23.35;16.20;;;8.40;99.90;;;;;;5057700;28;20053;-94
2022/03/03 11:01:28;;;;;;;19.20;14.32;;;8.40;99.90;;;;;;5040309;28;20440;-92
2022/03/03 11:03:59;;;;;;;20.38;15.13;;;8.40;99.90;;;;;;5040330;28;20439;-91
2022/03/03 11:06:33;;;;;;;20.77;15.20;;;8.50;99.90;;;;;;5057178;28;20083;-90
2022/03/03 11:09:01;;;;;;;23.13;16.27;;;8.60;99.90;;;;;;5040214;28;20477;-93
2022/03/03 11:11:27;;;;;;;22.67;15.70;;;8.60;99.90;;;;;;5040444;28;20520;-90
2022/03/03 11:13:54;;;;;;;22.50;16.33;;;10.20;99.90;;;;;;5041526;28;20056;-91
2022/03/03 11:16:22;;;;;;;25.35;17.70;;;8.90;99.90;;;;;;5041744;28;20508;-90
2022/03/03 11:18:49;;;;;;;26.20;18.02;;;8.80;99.90;;;;;;5039858;28;20060;-92
2022/03/03 11:21:15;;;;;;;24.35;17.15;;;10.50;99.90;;;;;;5040420;28;20105;-92
2022/03/03 11:23:55;;;;;;;24.92;18.10;;;9.00;99.90;;;;;;5023670;28;20494;-93
2022/03/03 11:26:44;;;;;;;23.90;17.23;;;10.80;99.90;;;;;;5040216;28;20416;-93
2022/03/03 11:29:23;;;;;;;23.90;17.55;;;9.00;99.90;;;;;;5057483;28;20056;-95
2022/03/03 11:32:09;;;;;;;25.75;17.88;;;9.00;99.90;;;;;;5023226;28;20041;-93
2022/03/03 11:34:35;;;;;;;23.73;17.08;;;9.10;99.90;;;;;;5039804;28;20495;-90
2022/03/03 11:37:04;;;;;;;25.33;17.40;;;9.50;99.90;;;;;;5039560;28;20021;-93
2022/03/03 11:39:53;;;;;;;26.77;18.65;;;9.40;99.90;;;;;;5057250;28;20053;-91
2022/03/03 11:42:27;;;;;;;27.05;19.80;;;9.60;99.90;;;;;;5040041;28;20049;-93
2022/03/03 11:45:10;;;;;;;31.40;19.50;;;9.90;99.90;;;;;;5040633;28;20032;-92
2022/03/03 11:47:47;;;;;;;24.27;18.95;;;10.50;99.90;;;;;;5039972;28;20059;-92
2022/03/03 11:50:24;;;;;;;22.23;17.48;;;10.10;99.90;;;;;;5040079;28;20055;-91
2022/03/03 11:52:57;;;;;;;23.70;18.05;;;10.60;99.90;;;;;;5040976;28;20052;-92
2022/03/03 11:55:35;;;;;;;26.85;19.63;;;10.60;99.90;;;;;;5040107;28;20055;-91
2022/03/03 11:58:16;;;;;;;28.35;19.20;;;10.50;99.90;;;;;;5056101;28;20049;-92
2022/03/03 12:00:47;;;;;;;25.67;17.85;;;10.40;99.90;;;;;;5056551;28;20049;-90
2022/03/03 12:03:15;;;;;;;24.48;17.75;;;10.70;99.90;;;;;;5039944;28;20056;-92
2022/03/03 12:05:43;;;;;;;24.98;18.60;;;11.00;99.90;;;;;;5038289;28;20051;-92
2022/03/03 12:08:12;;;;;;;28.77;18.40;;;;;;;;;;5037089;28;20103;-92
2022/03/03 12:10:56;;;;;;;26.42;18.25;;;;;;;;;;5037993;28;20045;-94
2022/03/03 12:13:27;;;;;;;22.92;17.77;;;11.20;99.90;;;;;;5044947;28;20045;-88
2022/03/03 12:16:17;;;;;;;20.40;16.80;;;11.20;99.90;;;;;;5042265;28;20056;-94
2022/03/03 12:18:50;;;;;;;19.63;16.67;;;;;;;;;;5045212;28;20079;-94
2022/03/03 12:21:26;;;;;;;33.63;18.00;;;;;;;;;;5045540;28;20045;-89
2022/03/03 12:24:10;;;;;;;21.85;17.38;;;;;;;;;;5038586;28;20174;-91
2022/03/03 12:26:59;;;;;;;20.90;16.02;;;12.20;99.90;;;;;;5040674;28;20044;-90
2022/03/03 12:29:37;;;;;;;19.15;15.63;;;12.10;99.90;;;;;;5055987;28;20128;-94
2022/03/03 12:32:24;;;;;;;17.83;15.30;;;12.00;99.90;;;;;;5038467;28;20096;-91
2022/03/03 12:34:54;;;;;;;22.05;16.40;;;12.10;99.90;;;;;;5039192;28;20095;-93
2022/03/03 12:37:20;;;;;;;22.65;16.10;;;12.90;99.90;;;;;;5038385;28;20075;-91
2022/03/03 12:39:55;;;;;;;19.05;15.07;;;12.80;99.90;;;;;;5040652;28;20468;-91
2022/03/03 12:42:26;;;;;;;19.98;15.68;;;12.60;99.60;;;;;;5042891;28;20083;-91
2022/03/03 12:44:52;;;;;;;;;;;14.10;99.90;;;;;;5041723;28;20052;-91
2022/03/03 12:47:42;;;;;;;20.95;16.15;;;12.80;99.90;;;;;;5042302;28;19920;-92
2022/03/03 12:50:10;;;;;;;22.47;17.03;;;13.40;99.80;;;;;;5041061;28;20158;-91